sensor_id;sensor_type;location;lat;lon;timestamp;P1;durP1;ratioP1;P2;durP2;ratioP2
55078;SDS011;55187;49.496;6.010;2022-09-21T00:01:05;5.18;;;1.75;;
55078;SDS011;55187;49.496;6.010;2022-09-21T00:03:40;6.88;;;1.90;;
55078;SDS011;55187;49.496;6.010;2022-09-21T00:06:10;3.13;;;1.38;;
55078;SDS011;55187;49.496;6.010;2022-09-21T00:08:38;4.55;;;1.83;;
55078;SDS011;55187;49.496;6.010;2022-09-21T00:11:04;3.35;;;1.70;;
55078;SDS011;55187;49.496;6.010;2022-09-21T00:13:32;4.32;;;1.63;;
55078;SDS011;55187;49.496;6.010;2022-09-21T00:16:00;3.65;;;1.33;;
55078;SDS011;55187;49.496;6.010;2022-09-21T00:18:32;3.22;;;1.35;;
55078;SDS011;55187;49.496;6.010;2022-09-21T00:20:59;3.75;;;2.03;;
55078;SDS011;55187;49.496;6.010;2022-09-21T00:23:25;4.93;;;2.20;;
55078;SDS011;55187;49.496;6.010;2022-09-21T00:25:51;1.65;;;1.45;;
55078;SDS011;55187;49.496;6.010;2022-09-21T00:28:18;2.78;;;1.90;;
55078;SDS011;55187;49.496;6.010;2022-09-21T00:30:44;3.92;;;1.75;;
55078;SDS011;55187;49.496;6.010;2022-09-21T00:33:11;3.08;;;1.85;;
55078;SDS011;55187;49.496;6.010;2022-09-21T00:35:37;6.68;;;2.03;;
55078;SDS011;55187;49.496;6.010;2022-09-21T00:38:04;4.13;;;1.90;;
55078;SDS011;55187;49.496;6.010;2022-09-21T00:40:30;1.95;;;1.50;;
55078;SDS011;55187;49.496;6.010;2022-09-21T00:45:36;3.70;;;2.22;;
55078;SDS011;55187;49.496;6.010;2022-09-21T00:48:03;6.55;;;1.60;;
55078;SDS011;55187;49.496;6.010;2022-09-21T00:50:30;3.85;;;1.63;;
55078;SDS011;55187;49.496;6.010;2022-09-21T00:52:58;3.65;;;1.92;;
55078;SDS011;55187;49.496;6.010;2022-09-21T00:55:29;3.15;;;1.85;;
55078;SDS011;55187;49.496;6.010;2022-09-21T00:58:01;2.15;;;1.70;;
55078;SDS011;55187;49.496;6.010;2022-09-21T01:00:37;2.42;;;1.70;;
55078;SDS011;55187;49.496;6.010;2022-09-21T01:03:05;3.17;;;1.73;;
55078;SDS011;55187;49.496;6.010;2022-09-21T01:05:34;6.43;;;1.70;;
55078;SDS011;55187;49.496;6.010;2022-09-21T01:08:01;3.78;;;1.55;;
55078;SDS011;55187;49.496;6.010;2022-09-21T01:10:37;2.05;;;1.80;;
55078;SDS011;55187;49.496;6.010;2022-09-21T01:16:11;1.73;;;1.45;;
55078;SDS011;55187;49.496;6.010;2022-09-21T01:18:45;7.40;;;1.45;;
55078;SDS011;55187;49.496;6.010;2022-09-21T01:21:22;1.95;;;1.70;;
55078;SDS011;55187;49.496;6.010;2022-09-21T01:24:02;4.53;;;1.70;;
55078;SDS011;55187;49.496;6.010;2022-09-21T01:26:58;5.93;;;1.40;;
55078;SDS011;55187;49.496;6.010;2022-09-21T01:29:45;2.33;;;1.50;;
55078;SDS011;55187;49.496;6.010;2022-09-21T01:32:18;1.63;;;1.52;;
55078;SDS011;55187;49.496;6.010;2022-09-21T01:34:58;3.95;;;2.03;;
55078;SDS011;55187;49.496;6.010;2022-09-21T01:40:25;3.47;;;2.03;;
55078;SDS011;55187;49.496;6.010;2022-09-21T01:42:57;2.03;;;1.77;;
55078;SDS011;55187;49.496;6.010;2022-09-21T01:45:30;3.00;;;1.77;;
55078;SDS011;55187;49.496;6.010;2022-09-21T01:50:28;10.32;;;1.70;;
55078;SDS011;55187;49.496;6.010;2022-09-21T01:53:11;1.75;;;1.35;;
55078;SDS011;55187;49.496;6.010;2022-09-21T01:55:45;2.83;;;1.77;;
55078;SDS011;55187;49.496;6.010;2022-09-21T01:58:23;3.10;;;1.60;;
55078;SDS011;55187;49.496;6.010;2022-09-21T02:01:01;2.42;;;1.73;;
55078;SDS011;55187;49.496;6.010;2022-09-21T02:03:37;3.38;;;2.17;;
55078;SDS011;55187;49.496;6.010;2022-09-21T02:06:10;3.63;;;1.83;;
55078;SDS011;55187;49.496;6.010;2022-09-21T02:08:39;3.78;;;2.00;;
55078;SDS011;55187;49.496;6.010;2022-09-21T02:11:06;4.43;;;2.67;;
55078;SDS011;55187;49.496;6.010;2022-09-21T02:13:33;3.67;;;2.22;;
55078;SDS011;55187;49.496;6.010;2022-09-21T02:16:12;4.13;;;1.73;;
55078;SDS011;55187;49.496;6.010;2022-09-21T02:18:52;7.47;;;2.10;;
55078;SDS011;55187;49.496;6.010;2022-09-21T02:21:46;4.22;;;1.88;;
55078;SDS011;55187;49.496;6.010;2022-09-21T02:24:32;8.77;;;1.67;;
55078;SDS011;55187;49.496;6.010;2022-09-21T02:27:22;4.07;;;1.88;;
55078;SDS011;55187;49.496;6.010;2022-09-21T02:30:07;5.05;;;1.90;;
55078;SDS011;55187;49.496;6.010;2022-09-21T02:32:44;5.28;;;2.50;;
55078;SDS011;55187;49.496;6.010;2022-09-21T02:40:52;4.55;;;2.08;;
55078;SDS011;55187;49.496;6.010;2022-09-21T02:43:24;6.25;;;1.98;;
55078;SDS011;55187;49.496;6.010;2022-09-21T02:46:03;4.13;;;2.28;;
55078;SDS011;55187;49.496;6.010;2022-09-21T02:48:38;3.35;;;1.50;;
55078;SDS011;55187;49.496;6.010;2022-09-21T02:51:11;4.30;;;2.15;;
55078;SDS011;55187;49.496;6.010;2022-09-21T02:53:42;2.47;;;1.95;;
55078;SDS011;55187;49.496;6.010;2022-09-21T02:56:11;3.22;;;2.00;;
55078;SDS011;55187;49.496;6.010;2022-09-21T02:58:40;3.35;;;1.65;;
55078;SDS011;55187;49.496;6.010;2022-09-21T03:01:11;2.53;;;1.73;;
55078;SDS011;55187;49.496;6.010;2022-09-21T03:03:40;2.60;;;1.70;;
55078;SDS011;55187;49.496;6.010;2022-09-21T03:06:06;2.10;;;1.33;;
55078;SDS011;55187;49.496;6.010;2022-09-21T03:08:33;3.53;;;1.52;;
55078;SDS011;55187;49.496;6.010;2022-09-21T03:10:59;2.97;;;1.65;;
55078;SDS011;55187;49.496;6.010;2022-09-21T03:13:25;2.45;;;1.63;;
55078;SDS011;55187;49.496;6.010;2022-09-21T03:16:02;3.38;;;1.48;;
55078;SDS011;55187;49.496;6.010;2022-09-21T03:18:30;7.28;;;2.00;;
55078;SDS011;55187;49.496;6.010;2022-09-21T03:20:58;3.22;;;2.20;;
55078;SDS011;55187;49.496;6.010;2022-09-21T03:23:25;3.50;;;1.35;;
55078;SDS011;55187;49.496;6.010;2022-09-21T03:25:51;4.40;;;1.90;;
55078;SDS011;55187;49.496;6.010;2022-09-21T03:28:19;6.88;;;2.35;;
55078;SDS011;55187;49.496;6.010;2022-09-21T03:30:47;3.55;;;1.83;;
55078;SDS011;55187;49.496;6.010;2022-09-21T03:33:17;5.57;;;1.90;;
55078;SDS011;55187;49.496;6.010;2022-09-21T03:35:44;3.20;;;1.55;;
55078;SDS011;55187;49.496;6.010;2022-09-21T03:38:12;6.53;;;2.33;;
55078;SDS011;55187;49.496;6.010;2022-09-21T03:40:39;5.38;;;1.75;;
55078;SDS011;55187;49.496;6.010;2022-09-21T03:43:05;3.03;;;1.52;;
55078;SDS011;55187;49.496;6.010;2022-09-21T03:45:31;4.03;;;1.75;;
55078;SDS011;55187;49.496;6.010;2022-09-21T03:47:58;4.18;;;1.90;;
55078;SDS011;55187;49.496;6.010;2022-09-21T03:50:26;5.80;;;2.20;;
55078;SDS011;55187;49.496;6.010;2022-09-21T03:52:54;2.20;;;1.60;;
55078;SDS011;55187;49.496;6.010;2022-09-21T03:55:21;3.83;;;1.73;;
55078;SDS011;55187;49.496;6.010;2022-09-21T03:57:47;3.13;;;1.85;;
55078;SDS011;55187;49.496;6.010;2022-09-21T04:00:14;4.30;;;2.33;;
55078;SDS011;55187;49.496;6.010;2022-09-21T04:02:41;3.08;;;1.73;;
55078;SDS011;55187;49.496;6.010;2022-09-21T04:05:08;3.80;;;2.05;;
55078;SDS011;55187;49.496;6.010;2022-09-21T04:07:36;4.32;;;1.70;;
55078;SDS011;55187;49.496;6.010;2022-09-21T04:10:05;5.07;;;1.60;;
55078;SDS011;55187;49.496;6.010;2022-09-21T04:12:38;3.45;;;2.22;;
55078;SDS011;55187;49.496;6.010;2022-09-21T04:15:12;5.30;;;1.85;;
55078;SDS011;55187;49.496;6.010;2022-09-21T04:17:40;5.38;;;1.63;;
55078;SDS011;55187;49.496;6.010;2022-09-21T04:20:07;6.38;;;2.40;;
55078;SDS011;55187;49.496;6.010;2022-09-21T04:22:37;9.75;;;1.85;;
55078;SDS011;55187;49.496;6.010;2022-09-21T04:25:04;9.05;;;2.28;;
55078;SDS011;55187;49.496;6.010;2022-09-21T04:27:31;6.30;;;2.88;;
55078;SDS011;55187;49.496;6.010;2022-09-21T04:29:58;4.03;;;2.15;;
55078;SDS011;55187;49.496;6.010;2022-09-21T04:32:25;3.92;;;1.48;;
55078;SDS011;55187;49.496;6.010;2022-09-21T04:34:52;4.13;;;1.75;;
55078;SDS011;55187;49.496;6.010;2022-09-21T04:37:18;3.20;;;1.95;;
55078;SDS011;55187;49.496;6.010;2022-09-21T04:39:44;4.85;;;1.60;;
55078;SDS011;55187;49.496;6.010;2022-09-21T04:42:11;2.78;;;1.83;;
55078;SDS011;55187;49.496;6.010;2022-09-21T04:44:38;5.30;;;2.10;;
55078;SDS011;55187;49.496;6.010;2022-09-21T04:47:04;5.10;;;2.80;;
55078;SDS011;55187;49.496;6.010;2022-09-21T04:49:30;6.93;;;3.38;;
55078;SDS011;55187;49.496;6.010;2022-09-21T04:51:57;3.58;;;2.90;;
55078;SDS011;55187;49.496;6.010;2022-09-21T04:54:23;7.68;;;3.78;;
55078;SDS011;55187;49.496;6.010;2022-09-21T04:56:50;10.35;;;3.97;;
55078;SDS011;55187;49.496;6.010;2022-09-21T04:59:17;10.90;;;3.95;;
55078;SDS011;55187;49.496;6.010;2022-09-21T05:01:43;10.70;;;3.70;;
55078;SDS011;55187;49.496;6.010;2022-09-21T05:04:09;8.50;;;4.50;;
55078;SDS011;55187;49.496;6.010;2022-09-21T05:06:35;6.55;;;3.72;;
55078;SDS011;55187;49.496;6.010;2022-09-21T05:09:02;5.55;;;3.75;;
55078;SDS011;55187;49.496;6.010;2022-09-21T05:11:40;10.98;;;4.50;;
55078;SDS011;55187;49.496;6.010;2022-09-21T05:14:07;16.75;;;4.38;;
55078;SDS011;55187;49.496;6.010;2022-09-21T05:16:34;5.90;;;2.85;;
55078;SDS011;55187;49.496;6.010;2022-09-21T05:19:00;6.30;;;3.10;;
55078;SDS011;55187;49.496;6.010;2022-09-21T05:21:27;5.50;;;2.85;;
55078;SDS011;55187;49.496;6.010;2022-09-21T05:23:53;7.88;;;3.25;;
55078;SDS011;55187;49.496;6.010;2022-09-21T05:26:20;3.15;;;2.17;;
55078;SDS011;55187;49.496;6.010;2022-09-21T05:28:47;4.75;;;2.67;;
55078;SDS011;55187;49.496;6.010;2022-09-21T05:31:29;8.02;;;3.58;;
55078;SDS011;55187;49.496;6.010;2022-09-21T05:34:05;14.90;;;3.25;;
55078;SDS011;55187;49.496;6.010;2022-09-21T05:36:57;9.52;;;3.53;;
55078;SDS011;55187;49.496;6.010;2022-09-21T05:39:35;10.48;;;2.63;;
55078;SDS011;55187;49.496;6.010;2022-09-21T05:42:02;3.65;;;2.95;;
55078;SDS011;55187;49.496;6.010;2022-09-21T05:44:29;4.47;;;2.28;;
55078;SDS011;55187;49.496;6.010;2022-09-21T05:46:58;4.95;;;3.20;;
55078;SDS011;55187;49.496;6.010;2022-09-21T05:52:40;9.35;;;3.67;;
55078;SDS011;55187;49.496;6.010;2022-09-21T05:55:24;5.95;;;3.17;;
55078;SDS011;55187;49.496;6.010;2022-09-21T05:58:17;4.18;;;2.30;;
55078;SDS011;55187;49.496;6.010;2022-09-21T06:00:56;10.77;;;3.70;;
55078;SDS011;55187;49.496;6.010;2022-09-21T06:03:37;6.75;;;3.03;;
55078;SDS011;55187;49.496;6.010;2022-09-21T06:06:06;4.80;;;2.90;;
55078;SDS011;55187;49.496;6.010;2022-09-21T06:08:35;4.55;;;2.85;;
55078;SDS011;55187;49.496;6.010;2022-09-21T06:11:01;4.80;;;2.53;;
55078;SDS011;55187;49.496;6.010;2022-09-21T06:13:28;9.70;;;2.90;;
55078;SDS011;55187;49.496;6.010;2022-09-21T06:15:55;6.18;;;2.72;;
55078;SDS011;55187;49.496;6.010;2022-09-21T06:18:21;5.10;;;2.40;;
55078;SDS011;55187;49.496;6.010;2022-09-21T06:20:48;5.07;;;2.78;;
55078;SDS011;55187;49.496;6.010;2022-09-21T06:23:14;3.63;;;2.75;;
55078;SDS011;55187;49.496;6.010;2022-09-21T06:25:41;9.77;;;3.53;;
55078;SDS011;55187;49.496;6.010;2022-09-21T06:28:08;12.48;;;3.20;;
55078;SDS011;55187;49.496;6.010;2022-09-21T06:30:36;6.95;;;3.03;;
55078;SDS011;55187;49.496;6.010;2022-09-21T06:33:04;4.03;;;2.65;;
55078;SDS011;55187;49.496;6.010;2022-09-21T06:35:32;4.20;;;2.38;;
55078;SDS011;55187;49.496;6.010;2022-09-21T06:38:02;3.78;;;2.80;;
55078;SDS011;55187;49.496;6.010;2022-09-21T06:40:31;14.27;;;3.60;;
55078;SDS011;55187;49.496;6.010;2022-09-21T06:42:59;5.70;;;2.80;;
55078;SDS011;55187;49.496;6.010;2022-09-21T06:45:28;5.05;;;2.70;;
55078;SDS011;55187;49.496;6.010;2022-09-21T06:47:56;6.32;;;3.80;;
55078;SDS011;55187;49.496;6.010;2022-09-21T06:50:23;3.80;;;2.08;;
55078;SDS011;55187;49.496;6.010;2022-09-21T06:52:49;5.05;;;2.78;;
55078;SDS011;55187;49.496;6.010;2022-09-21T06:55:16;4.90;;;1.90;;
55078;SDS011;55187;49.496;6.010;2022-09-21T06:57:43;5.68;;;3.88;;
55078;SDS011;55187;49.496;6.010;2022-09-21T07:00:10;8.75;;;3.20;;
55078;SDS011;55187;49.496;6.010;2022-09-21T07:02:41;6.78;;;3.42;;
55078;SDS011;55187;49.496;6.010;2022-09-21T07:07:38;4.80;;;3.00;;
55078;SDS011;55187;49.496;6.010;2022-09-21T07:10:05;6.32;;;3.38;;
55078;SDS011;55187;49.496;6.010;2022-09-21T07:12:33;6.80;;;3.15;;
55078;SDS011;55187;49.496;6.010;2022-09-21T07:15:01;7.00;;;3.83;;
55078;SDS011;55187;49.496;6.010;2022-09-21T07:17:30;7.30;;;3.17;;
55078;SDS011;55187;49.496;6.010;2022-09-21T07:19:58;8.15;;;4.20;;
55078;SDS011;55187;49.496;6.010;2022-09-21T07:22:26;6.88;;;4.28;;
55078;SDS011;55187;49.496;6.010;2022-09-21T07:24:53;15.27;;;4.85;;
55078;SDS011;55187;49.496;6.010;2022-09-21T07:27:20;494.35;;;62.80;;
55078;SDS011;55187;49.496;6.010;2022-09-21T07:29:46;832.42;;;93.32;;
55078;SDS011;55187;49.496;6.010;2022-09-21T07:32:13;944.10;;;99.00;;
55078;SDS011;55187;49.496;6.010;2022-09-21T07:34:40;427.20;;;41.50;;
55078;SDS011;55187;49.496;6.010;2022-09-21T07:37:06;11.93;;;4.78;;
55078;SDS011;55187;49.496;6.010;2022-09-21T07:39:32;11.80;;;5.53;;
55078;SDS011;55187;49.496;6.010;2022-09-21T07:42:00;10.15;;;4.47;;
55078;SDS011;55187;49.496;6.010;2022-09-21T07:44:27;5.15;;;3.13;;
55078;SDS011;55187;49.496;6.010;2022-09-21T07:46:53;6.25;;;2.83;;
55078;SDS011;55187;49.496;6.010;2022-09-21T07:49:20;2.92;;;2.15;;
55078;SDS011;55187;49.496;6.010;2022-09-21T07:51:46;4.47;;;2.17;;
55078;SDS011;55187;49.496;6.010;2022-09-21T07:54:13;5.18;;;2.65;;
55078;SDS011;55187;49.496;6.010;2022-09-21T07:56:40;4.25;;;1.95;;
55078;SDS011;55187;49.496;6.010;2022-09-21T07:59:08;4.68;;;2.42;;
55078;SDS011;55187;49.496;6.010;2022-09-21T08:01:37;6.00;;;2.45;;
55078;SDS011;55187;49.496;6.010;2022-09-21T08:04:07;7.57;;;2.83;;
55078;SDS011;55187;49.496;6.010;2022-09-21T08:06:36;6.43;;;3.00;;
55078;SDS011;55187;49.496;6.010;2022-09-21T08:09:05;5.07;;;2.40;;
55078;SDS011;55187;49.496;6.010;2022-09-21T08:11:31;3.40;;;2.25;;
55078;SDS011;55187;49.496;6.010;2022-09-21T08:13:59;5.68;;;2.40;;
55078;SDS011;55187;49.496;6.010;2022-09-21T08:16:28;11.23;;;2.67;;
55078;SDS011;55187;49.496;6.010;2022-09-21T08:18:56;5.72;;;2.20;;
55078;SDS011;55187;49.496;6.010;2022-09-21T08:21:22;7.05;;;3.20;;
55078;SDS011;55187;49.496;6.010;2022-09-21T08:23:49;3.83;;;2.20;;
55078;SDS011;55187;49.496;6.010;2022-09-21T08:26:16;2.60;;;1.77;;
55078;SDS011;55187;49.496;6.010;2022-09-21T08:28:45;5.10;;;1.73;;
55078;SDS011;55187;49.496;6.010;2022-09-21T08:31:14;3.92;;;2.30;;
55078;SDS011;55187;49.496;6.010;2022-09-21T08:33:42;4.28;;;2.35;;
55078;SDS011;55187;49.496;6.010;2022-09-21T08:36:08;3.95;;;2.05;;
55078;SDS011;55187;49.496;6.010;2022-09-21T08:38:36;3.40;;;1.98;;
55078;SDS011;55187;49.496;6.010;2022-09-21T08:46:42;2.53;;;2.05;;
55078;SDS011;55187;49.496;6.010;2022-09-21T08:49:16;5.57;;;2.05;;
55078;SDS011;55187;49.496;6.010;2022-09-21T08:51:55;7.88;;;3.17;;
55078;SDS011;55187;49.496;6.010;2022-09-21T08:54:27;4.50;;;2.60;;
55078;SDS011;55187;49.496;6.010;2022-09-21T08:57:00;3.30;;;2.08;;
55078;SDS011;55187;49.496;6.010;2022-09-21T08:59:27;6.32;;;2.03;;
55078;SDS011;55187;49.496;6.010;2022-09-21T09:01:58;6.55;;;1.95;;
55078;SDS011;55187;49.496;6.010;2022-09-21T09:04:57;6.10;;;1.75;;
55078;SDS011;55187;49.496;6.010;2022-09-21T09:10:37;3.75;;;1.17;;
55078;SDS011;55187;49.496;6.010;2022-09-21T09:13:30;4.45;;;1.90;;
55078;SDS011;55187;49.496;6.010;2022-09-21T09:16:19;3.50;;;1.50;;
55078;SDS011;55187;49.496;6.010;2022-09-21T09:18:55;1.65;;;0.88;;
55078;SDS011;55187;49.496;6.010;2022-09-21T09:21:31;4.25;;;1.30;;
55078;SDS011;55187;49.496;6.010;2022-09-21T09:27:05;3.38;;;1.23;;
55078;SDS011;55187;49.496;6.010;2022-09-21T09:32:38;4.40;;;1.00;;
55078;SDS011;55187;49.496;6.010;2022-09-21T09:35:15;2.90;;;1.00;;
55078;SDS011;55187;49.496;6.010;2022-09-21T09:38:00;5.80;;;1.35;;
55078;SDS011;55187;49.496;6.010;2022-09-21T09:40:55;4.75;;;1.00;;
55078;SDS011;55187;49.496;6.010;2022-09-21T09:43:50;3.58;;;1.13;;
55078;SDS011;55187;49.496;6.010;2022-09-21T09:46:41;4.82;;;1.25;;
55078;SDS011;55187;49.496;6.010;2022-09-21T09:49:43;2.75;;;1.10;;
55078;SDS011;55187;49.496;6.010;2022-09-21T09:52:24;5.75;;;1.00;;
55078;SDS011;55187;49.496;6.010;2022-09-21T09:54:52;1.95;;;0.70;;
55078;SDS011;55187;49.496;6.010;2022-09-21T09:57:23;3.58;;;1.10;;
55078;SDS011;55187;49.496;6.010;2022-09-21T09:59:58;1.38;;;0.80;;
55078;SDS011;55187;49.496;6.010;2022-09-21T10:07:59;0.90;;;0.52;;
55078;SDS011;55187;49.496;6.010;2022-09-21T10:10:34;4.72;;;1.42;;
55078;SDS011;55187;49.496;6.010;2022-09-21T10:13:15;1.98;;;0.77;;
55078;SDS011;55187;49.496;6.010;2022-09-21T10:15:51;1.83;;;0.95;;
55078;SDS011;55187;49.496;6.010;2022-09-21T10:18:25;5.75;;;0.93;;
55078;SDS011;55187;49.496;6.010;2022-09-21T10:21:08;4.82;;;1.50;;
55078;SDS011;55187;49.496;6.010;2022-09-21T10:23:47;5.57;;;0.90;;
55078;SDS011;55187;49.496;6.010;2022-09-21T10:26:22;4.50;;;0.95;;
55078;SDS011;55187;49.496;6.010;2022-09-21T10:28:56;2.85;;;1.20;;
55078;SDS011;55187;49.496;6.010;2022-09-21T10:31:25;10.80;;;1.35;;
55078;SDS011;55187;49.496;6.010;2022-09-21T10:34:06;3.53;;;1.33;;
55078;SDS011;55187;49.496;6.010;2022-09-21T10:36:38;2.70;;;1.40;;
55078;SDS011;55187;49.496;6.010;2022-09-21T10:39:10;4.15;;;1.25;;
55078;SDS011;55187;49.496;6.010;2022-09-21T10:41:49;2.42;;;1.15;;
55078;SDS011;55187;49.496;6.010;2022-09-21T10:44:18;2.40;;;0.70;;
55078;SDS011;55187;49.496;6.010;2022-09-21T10:46:47;2.33;;;1.00;;
55078;SDS011;55187;49.496;6.010;2022-09-21T10:49:18;1.13;;;0.82;;
55078;SDS011;55187;49.496;6.010;2022-09-21T10:51:50;5.05;;;0.93;;
55078;SDS011;55187;49.496;6.010;2022-09-21T10:54:21;1.27;;;0.77;;
55078;SDS011;55187;49.496;6.010;2022-09-21T10:56:56;2.95;;;0.85;;
55078;SDS011;55187;49.496;6.010;2022-09-21T10:59:30;6.50;;;1.13;;
55078;SDS011;55187;49.496;6.010;2022-09-21T11:01:58;1.00;;;0.70;;
55078;SDS011;55187;49.496;6.010;2022-09-21T11:09:37;1.65;;;0.85;;
55078;SDS011;55187;49.496;6.010;2022-09-21T11:18:09;4.07;;;0.65;;
55078;SDS011;55187;49.496;6.010;2022-09-21T11:20:52;2.72;;;0.90;;
55078;SDS011;55187;49.496;6.010;2022-09-21T11:31:48;1.30;;;0.80;;
55078;SDS011;55187;49.496;6.010;2022-09-21T11:37:29;1.73;;;0.67;;
55078;SDS011;55187;49.496;6.010;2022-09-21T11:40:21;5.60;;;1.67;;
55078;SDS011;55187;49.496;6.010;2022-09-21T11:43:19;0.70;;;0.60;;
55078;SDS011;55187;49.496;6.010;2022-09-21T11:48:47;2.03;;;0.73;;
55078;SDS011;55187;49.496;6.010;2022-09-21T12:08:39;1.80;;;0.80;;
55078;SDS011;55187;49.496;6.010;2022-09-21T12:14:23;0.68;;;0.50;;
55078;SDS011;55187;49.496;6.010;2022-09-21T12:17:09;3.03;;;0.65;;
55078;SDS011;55187;49.496;6.010;2022-09-21T12:19:55;0.93;;;0.70;;
55078;SDS011;55187;49.496;6.010;2022-09-21T12:22:46;2.53;;;0.80;;
55078;SDS011;55187;49.496;6.010;2022-09-21T12:25:19;1.67;;;0.93;;
55078;SDS011;55187;49.496;6.010;2022-09-21T12:27:58;1.83;;;0.57;;
55078;SDS011;55187;49.496;6.010;2022-09-21T12:30:32;0.90;;;0.80;;
55078;SDS011;55187;49.496;6.010;2022-09-21T12:33:04;2.45;;;0.70;;
55078;SDS011;55187;49.496;6.010;2022-09-21T12:35:41;3.60;;;0.85;;
55078;SDS011;55187;49.496;6.010;2022-09-21T12:38:15;1.15;;;0.93;;
55078;SDS011;55187;49.496;6.010;2022-09-21T12:40:53;1.42;;;0.85;;
55078;SDS011;55187;49.496;6.010;2022-09-21T12:46:14;1.23;;;0.90;;
55078;SDS011;55187;49.496;6.010;2022-09-21T12:48:46;1.20;;;0.77;;
55078;SDS011;55187;49.496;6.010;2022-09-21T12:51:18;2.28;;;0.50;;
55078;SDS011;55187;49.496;6.010;2022-09-21T12:53:53;0.80;;;0.70;;
55078;SDS011;55187;49.496;6.010;2022-09-21T12:56:24;2.25;;;0.93;;
55078;SDS011;55187;49.496;6.010;2022-09-21T13:01:52;0.80;;;0.63;;
55078;SDS011;55187;49.496;6.010;2022-09-21T13:04:31;2.30;;;0.93;;
55078;SDS011;55187;49.496;6.010;2022-09-21T13:10:14;1.05;;;0.70;;
55078;SDS011;55187;49.496;6.010;2022-09-21T13:12:45;0.90;;;0.60;;
55078;SDS011;55187;49.496;6.010;2022-09-21T13:15:23;0.45;;;0.45;;
55078;SDS011;55187;49.496;6.010;2022-09-21T13:18:05;2.58;;;0.65;;
55078;SDS011;55187;49.496;6.010;2022-09-21T13:20:43;6.80;;;1.02;;
55078;SDS011;55187;49.496;6.010;2022-09-21T13:23:17;3.20;;;0.70;;
55078;SDS011;55187;49.496;6.010;2022-09-21T13:25:57;5.07;;;0.50;;
55078;SDS011;55187;49.496;6.010;2022-09-21T13:33:31;0.95;;;0.50;;
55078;SDS011;55187;49.496;6.010;2022-09-21T13:38:55;2.42;;;1.27;;
55078;SDS011;55187;49.496;6.010;2022-09-21T13:41:28;1.27;;;0.80;;
55078;SDS011;55187;49.496;6.010;2022-09-21T13:43:59;0.90;;;0.70;;
55078;SDS011;55187;49.496;6.010;2022-09-21T13:46:44;0.95;;;0.70;;
55078;SDS011;55187;49.496;6.010;2022-09-21T13:49:15;1.10;;;0.50;;
55078;SDS011;55187;49.496;6.010;2022-09-21T13:57:35;2.80;;;1.30;;
55078;SDS011;55187;49.496;6.010;2022-09-21T14:00:08;6.18;;;0.68;;
55078;SDS011;55187;49.496;6.010;2022-09-21T14:02:56;3.30;;;0.70;;
55078;SDS011;55187;49.496;6.010;2022-09-21T14:05:37;0.80;;;0.63;;
55078;SDS011;55187;49.496;6.010;2022-09-21T14:11:03;2.35;;;0.65;;
55078;SDS011;55187;49.496;6.010;2022-09-21T14:13:42;0.47;;;0.47;;
55078;SDS011;55187;49.496;6.010;2022-09-21T14:18:52;0.63;;;0.60;;
55078;SDS011;55187;49.496;6.010;2022-09-21T14:21:20;3.03;;;0.60;;
55078;SDS011;55187;49.496;6.010;2022-09-21T14:26:46;0.50;;;0.50;;
55078;SDS011;55187;49.496;6.010;2022-09-21T14:29:19;1.48;;;0.60;;
55078;SDS011;55187;49.496;6.010;2022-09-21T14:31:58;1.60;;;0.80;;
55078;SDS011;55187;49.496;6.010;2022-09-21T14:34:32;4.72;;;1.13;;
55078;SDS011;55187;49.496;6.010;2022-09-21T14:37:03;5.97;;;0.80;;
55078;SDS011;55187;49.496;6.010;2022-09-21T14:39:42;1.17;;;0.80;;
55078;SDS011;55187;49.496;6.010;2022-09-21T14:42:14;1.02;;;0.70;;
55078;SDS011;55187;49.496;6.010;2022-09-21T14:44:49;2.78;;;0.80;;
55078;SDS011;55187;49.496;6.010;2022-09-21T14:47:21;0.82;;;0.60;;
55078;SDS011;55187;49.496;6.010;2022-09-21T14:49:59;1.13;;;0.70;;
55078;SDS011;55187;49.496;6.010;2022-09-21T14:58:45;0.93;;;0.57;;
55078;SDS011;55187;49.496;6.010;2022-09-21T15:01:34;2.42;;;0.30;;
55078;SDS011;55187;49.496;6.010;2022-09-21T15:04:18;2.53;;;0.70;;
55078;SDS011;55187;49.496;6.010;2022-09-21T15:07:16;5.32;;;0.90;;
55078;SDS011;55187;49.496;6.010;2022-09-21T15:12:54;1.23;;;0.80;;
55078;SDS011;55187;49.496;6.010;2022-09-21T15:18:45;0.70;;;0.60;;
55078;SDS011;55187;49.496;6.010;2022-09-21T15:21:22;7.68;;;0.85;;
55078;SDS011;55187;49.496;6.010;2022-09-21T15:23:51;1.98;;;0.63;;
55078;SDS011;55187;49.496;6.010;2022-09-21T15:26:20;1.33;;;0.80;;
55078;SDS011;55187;49.496;6.010;2022-09-21T15:29:00;0.98;;;0.80;;
55078;SDS011;55187;49.496;6.010;2022-09-21T15:31:32;4.78;;;0.85;;
55078;SDS011;55187;49.496;6.010;2022-09-21T15:34:02;2.45;;;0.90;;
55078;SDS011;55187;49.496;6.010;2022-09-21T15:36:31;1.65;;;0.60;;
55078;SDS011;55187;49.496;6.010;2022-09-21T15:39:02;2.60;;;1.67;;
55078;SDS011;55187;49.496;6.010;2022-09-21T15:44:12;0.82;;;0.70;;
55078;SDS011;55187;49.496;6.010;2022-09-21T15:46:42;1.35;;;0.85;;
55078;SDS011;55187;49.496;6.010;2022-09-21T15:49:12;0.90;;;0.60;;
55078;SDS011;55187;49.496;6.010;2022-09-21T15:51:41;2.03;;;0.60;;
55078;SDS011;55187;49.496;6.010;2022-09-21T15:54:22;2.45;;;0.77;;
55078;SDS011;55187;49.496;6.010;2022-09-21T15:57:01;0.73;;;0.70;;
55078;SDS011;55187;49.496;6.010;2022-09-21T15:59:32;2.08;;;0.70;;
55078;SDS011;55187;49.496;6.010;2022-09-21T16:02:00;2.10;;;0.60;;
55078;SDS011;55187;49.496;6.010;2022-09-21T16:04:36;2.67;;;0.63;;
55078;SDS011;55187;49.496;6.010;2022-09-21T16:07:24;1.55;;;0.70;;
55078;SDS011;55187;49.496;6.010;2022-09-21T16:09:55;6.15;;;0.77;;
55078;SDS011;55187;49.496;6.010;2022-09-21T16:12:30;2.72;;;0.70;;
55078;SDS011;55187;49.496;6.010;2022-09-21T16:15:05;1.80;;;0.80;;
55078;SDS011;55187;49.496;6.010;2022-09-21T16:20:37;2.72;;;0.80;;
55078;SDS011;55187;49.496;6.010;2022-09-21T16:23:10;1.95;;;0.57;;
55078;SDS011;55187;49.496;6.010;2022-09-21T16:25:39;0.55;;;0.50;;
55078;SDS011;55187;49.496;6.010;2022-09-21T16:28:25;0.50;;;0.50;;
55078;SDS011;55187;49.496;6.010;2022-09-21T16:30:54;3.38;;;1.08;;
55078;SDS011;55187;49.496;6.010;2022-09-21T16:38:59;1.15;;;0.70;;
55078;SDS011;55187;49.496;6.010;2022-09-21T16:41:34;8.38;;;2.53;;
55078;SDS011;55187;49.496;6.010;2022-09-21T16:44:07;2.13;;;1.10;;
55078;SDS011;55187;49.496;6.010;2022-09-21T16:46:36;2.33;;;0.77;;
55078;SDS011;55187;49.496;6.010;2022-09-21T16:49:02;1.80;;;0.90;;
55078;SDS011;55187;49.496;6.010;2022-09-21T16:51:28;13.35;;;3.03;;
55078;SDS011;55187;49.496;6.010;2022-09-21T16:53:55;5.05;;;1.30;;
55078;SDS011;55187;49.496;6.010;2022-09-21T16:56:21;1.45;;;0.70;;
55078;SDS011;55187;49.496;6.010;2022-09-21T16:58:47;2.55;;;0.73;;
55078;SDS011;55187;49.496;6.010;2022-09-21T17:01:15;0.50;;;0.50;;
55078;SDS011;55187;49.496;6.010;2022-09-21T17:03:45;0.88;;;0.70;;
55078;SDS011;55187;49.496;6.010;2022-09-21T17:06:13;2.63;;;0.85;;
55078;SDS011;55187;49.496;6.010;2022-09-21T17:08:42;1.85;;;0.77;;
55078;SDS011;55187;49.496;6.010;2022-09-21T17:11:09;2.35;;;0.68;;
55078;SDS011;55187;49.496;6.010;2022-09-21T17:13:35;1.52;;;0.90;;
55078;SDS011;55187;49.496;6.010;2022-09-21T17:16:03;1.08;;;0.68;;
55078;SDS011;55187;49.496;6.010;2022-09-21T17:18:30;3.80;;;1.23;;
55078;SDS011;55187;49.496;6.010;2022-09-21T17:20:58;0.70;;;0.70;;
55078;SDS011;55187;49.496;6.010;2022-09-21T17:23:25;2.17;;;1.02;;
55078;SDS011;55187;49.496;6.010;2022-09-21T17:25:54;0.70;;;0.45;;
55078;SDS011;55187;49.496;6.010;2022-09-21T17:28:23;0.88;;;0.77;;
55078;SDS011;55187;49.496;6.010;2022-09-21T17:30:51;0.82;;;0.57;;
55078;SDS011;55187;49.496;6.010;2022-09-21T17:33:28;5.15;;;0.88;;
55078;SDS011;55187;49.496;6.010;2022-09-21T17:35:54;1.33;;;0.80;;
55078;SDS011;55187;49.496;6.010;2022-09-21T17:38:21;1.60;;;0.93;;